Time;durP1;ratioP1;P1;durP2;ratioP2;P2;SDS_P1;SDS_P2;PMS_P1;PMS_P2;Temp;Humidity;BMP_temperature;BMP_pressure;BME280_temperature;BME280_humidity;BME280_pressure;Samples;Min_cycle;Max_cycle;Signal;HPM_P1;HPM_P2
2022/06/27 00:00:48;;;;;;;7.05;2.30;;;20.80;78.10;;;;;;5034943;28;20025;-79
2022/06/27 00:03:14;;;;;;;7.75;2.47;;;20.70;78.80;;;;;;5034965;28;20083;-80
2022/06/27 00:05:40;;;;;;;10.13;2.40;;;20.60;79.70;;;;;;5034867;28;20029;-80
2022/06/27 00:08:05;;;;;;;10.07;3.35;;;20.30;82.10;;;;;;5034838;28;20029;-79
2022/06/27 00:10:31;;;;;;;6.07;3.03;;;20.20;83.90;;;;;;5033903;28;20017;-79
2022/06/27 00:12:57;;;;;;;7.15;2.35;;;19.80;86.00;;;;;;5034714;28;20047;-80
2022/06/27 00:15:23;;;;;;;8.93;2.40;;;19.60;87.40;;;;;;5034784;28;20490;-80
2022/06/27 00:17:49;;;;;;;8.00;2.13;;;19.50;87.60;;;;;;5034740;28;20189;-80
2022/06/27 00:20:15;;;;;;;2.88;1.52;;;19.60;87.90;;;;;;5034678;28;20100;-80
2022/06/27 00:22:40;;;;;;;3.35;1.38;;;19.70;87.20;;;;;;5034693;28;20029;-79
2022/06/27 00:25:07;;;;;;;1.63;1.15;;;19.70;86.40;;;;;;5034545;28;20041;-79
2022/06/27 00:27:32;;;;;;;1.65;1.00;;;19.60;86.40;;;;;;5034516;28;20352;-79
2022/06/27 00:29:58;;;;;;;3.40;1.20;;;19.50;85.70;;;;;;5034484;28;20040;-80
2022/06/27 00:32:24;;;;;;;5.03;1.20;;;19.50;85.70;;;;;;5034533;28;20424;-79
2022/06/27 00:34:50;;;;;;;1.50;0.88;;;19.10;87.40;;;;;;5034367;28;20455;-80
2022/06/27 00:37:16;;;;;;;6.18;1.23;;;18.80;87.40;;;;;;5034358;28;20034;-79
2022/06/27 00:39:42;;;;;;;1.23;0.70;;;18.80;88.20;;;;;;5034313;28;20032;-80
2022/06/27 00:42:07;;;;;;;1.58;0.73;;;19.00;87.10;;;;;;5034287;28;20033;-80
2022/06/27 00:44:39;;;;;;;0.60;0.57;;;19.00;85.70;;;;;;5034140;28;20041;-80
2022/06/27 00:47:06;;;;;;;0.50;0.43;;;19.20;85.20;;;;;;5034161;28;20026;-80
2022/06/27 00:49:33;;;;;;;1.17;0.70;;;19.20;84.70;;;;;;5033890;28;20546;-80
2022/06/27 00:51:59;;;;;;;1.00;0.70;;;19.40;85.10;;;;;;5034125;28;20025;-80
2022/06/27 00:54:25;;;;;;;0.90;0.63;;;19.50;85.90;;;;;;5033974;28;20137;-79
2022/06/27 00:56:53;;;;;;;4.47;0.90;;;19.60;84.70;;;;;;5034015;28;20029;-80
2022/06/27 00:59:19;;;;;;;2.28;0.68;;;19.70;84.20;;;;;;5034057;28;20026;-80
2022/06/27 01:01:45;;;;;;;2.17;0.80;;;19.60;84.90;;;;;;5016108;28;20025;-79
2022/06/27 01:04:10;;;;;;;1.05;0.68;;;19.70;84.90;;;;;;5033813;28;20038;-80
2022/06/27 01:06:36;;;;;;;1.17;1.08;;;19.70;84.70;;;;;;5033783;28;20021;-80
2022/06/27 01:09:03;;;;;;;3.03;1.10;;;19.60;86.00;;;;;;5033741;28;20025;-80
2022/06/27 01:11:29;;;;;;;1.92;0.98;;;19.30;86.60;;;;;;5034197;28;20033;-79
2022/06/27 01:13:55;;;;;;;1.02;0.70;;;19.20;87.10;;;;;;5015982;28;20051;-80
2022/06/27 01:16:20;;;;;;;2.08;0.77;;;19.30;87.40;;;;;;5015920;28;20414;-80
2022/06/27 01:18:46;;;;;;;1.75;0.80;;;19.30;86.30;;;;;;5033592;28;20022;-80
2022/06/27 01:21:21;;;;;;;2.97;0.82;;;19.30;86.10;;;;;;5033397;28;20026;-80
2022/06/27 01:23:46;;;;;;;1.80;1.02;;;19.30;85.50;;;;;;5033493;28;20131;-80
2022/06/27 01:26:12;;;;;;;4.47;1.08;;;19.30;85.50;;;;;;5033495;28;20061;-80
2022/06/27 01:28:38;;;;;;;1.33;0.82;;;19.30;85.50;;;;;;5033411;28;20115;-80
2022/06/27 01:31:04;;;;;;;2.13;0.90;;;19.20;85.90;;;;;;5033393;28;20097;-80
2022/06/27 01:33:29;;;;;;;2.40;1.08;;;19.20;85.90;;;;;;5033475;28;20025;-80
2022/06/27 01:36:41;;;;;;;1.33;0.70;;;19.30;85.40;;;;;;5033475;28;20158;-80
2022/06/27 01:38:41;;;;;;;1.15;0.60;;;19.50;85.30;;;;;;5033215;28;20545;-79
2022/06/27 01:41:06;;;;;;;1.00;0.80;;;19.60;84.80;;;;;;5033332;28;20029;-79
2022/06/27 01:43:33;;;;;;;0.93;0.70;;;19.60;84.70;;;;;;5015483;28;20478;-80
2022/06/27 01:45:59;;;;;;;1.42;0.98;;;19.60;85.10;;;;;;5033239;28;20025;-79
2022/06/27 01:48:25;;;;;;;2.15;0.80;;;19.70;85.00;;;;;;5033303;28;20030;-80
2022/06/27 01:50:53;;;;;;;1.10;0.70;;;19.80;84.80;;;;;;5033107;28;20056;-79
2022/06/27 01:53:19;;;;;;;0.88;0.70;;;19.90;84.60;;;;;;5033269;28;20025;-79
2022/06/27 01:55:44;;;;;;;1.33;0.80;;;20.00;84.20;;;;;;5033060;28;20025;-79
2022/06/27 01:58:10;;;;;;;1.48;0.95;;;20.00;84.10;;;;;;5033005;28;20021;-79
2022/06/27 02:00:37;;;;;;;1.02;0.70;;;20.10;84.20;;;;;;5015323;28;20087;-79
2022/06/27 02:03:03;;;;;;;1.85;0.98;;;20.10;83.80;;;;;;5032967;28;20499;-79
2022/06/27 02:05:29;;;;;;;3.53;1.23;;;20.10;83.70;;;;;;5032907;28;20041;-79
2022/06/27 02:07:57;;;;;;;1.02;0.80;;;20.00;84.30;;;;;;5032932;28;20535;-78
2022/06/27 02:10:22;;;;;;;1.25;0.70;;;20.00;84.30;;;;;;5032989;28;20029;-79
2022/06/27 02:12:48;;;;;;;1.60;0.90;;;20.00;84.30;;;;;;5032903;28;20041;-79
2022/06/27 02:15:14;;;;;;;1.00;0.73;;;20.00;84.10;;;;;;5032889;28;20025;-79
2022/06/27 02:17:40;;;;;;;0.88;0.88;;;20.00;83.90;;;;;;5015146;28;20063;-78
2022/06/27 02:20:07;;;;;;;2.05;1.20;;;20.00;83.50;;;;;;5032811;28;20152;-79
2022/06/27 02:22:32;;;;;;;0.73;0.73;;;19.90;83.30;;;;;;5032761;28;20014;-79
2022/06/27 02:24:58;;;;;;;2.10;1.08;;;19.90;83.20;;;;;;5032756;28;20537;-78
2022/06/27 02:27:24;;;;;;;0.75;0.75;;;20.00;83.20;;;;;;5032757;28;20092;-79
2022/06/27 02:29:50;;;;;;;1.50;0.68;;;20.00;82.90;;;;;;5032723;28;20032;-79
2022/06/27 02:32:16;;;;;;;1.52;0.70;;;20.10;82.80;;;;;;5032671;28;20045;-79
2022/06/27 02:34:42;;;;;;;1.23;0.80;;;20.10;82.70;;;;;;5035260;28;20018;-79
2022/06/27 02:37:09;;;;;;;0.98;0.80;;;20.10;82.70;;;;;;5036628;28;20108;-79
2022/06/27 02:39:37;;;;;;;1.27;0.82;;;20.10;82.80;;;;;;5036687;28;20442;-79
2022/06/27 02:42:04;;;;;;;1.10;0.90;;;20.10;82.60;;;;;;5036535;28;20022;-79
2022/06/27 02:44:31;;;;;;;1.90;1.20;;;20.10;82.30;;;;;;5036439;28;20043;-79
2022/06/27 02:46:57;;;;;;;0.80;0.70;;;20.10;82.10;;;;;;5036501;28;20017;-79
2022/06/27 02:49:23;;;;;;;2.70;0.90;;;20.10;81.80;;;;;;5036179;28;20084;-79
2022/06/27 02:52:02;;;;;;;1.08;0.73;;;20.00;81.90;;;;;;5036435;28;20424;-79
2022/06/27 02:54:43;;;;;;;2.20;1.08;;;20.00;82.10;;;;;;5036224;28;20037;-79
2022/06/27 02:57:38;;;;;;;1.42;0.90;;;19.90;82.30;;;;;;5036728;28;20428;-79
2022/06/27 03:00:07;;;;;;;1.38;0.80;;;19.90;82.30;;;;;;5035910;28;20044;-79
2022/06/27 03:02:35;;;;;;;2.45;1.00;;;19.80;82.40;;;;;;5036222;28;20024;-79
2022/06/27 03:05:01;;;;;;;2.10;0.85;;;19.90;82.80;;;;;;5036085;28;20026;-78
2022/06/27 03:07:28;;;;;;;1.00;0.70;;;19.90;82.70;;;;;;5035983;28;20028;-79
2022/06/27 03:09:53;;;;;;;2.67;0.90;;;19.90;82.90;;;;;;5036111;28;20030;-78
2022/06/27 03:12:19;;;;;;;1.45;0.93;;;19.90;83.10;;;;;;5018209;28;20116;-78
2022/06/27 03:14:44;;;;;;;1.50;0.77;;;19.90;82.80;;;;;;5035890;28;20029;-78
2022/06/27 03:17:10;;;;;;;1.38;1.08;;;19.90;82.40;;;;;;5035931;28;20024;-78
2022/06/27 03:19:35;;;;;;;1.25;0.88;;;19.90;82.50;;;;;;5035816;28;20033;-77
2022/06/27 03:22:01;;;;;;;0.70;0.60;;;19.90;82.40;;;;;;5035811;28;20049;-79
2022/06/27 03:24:27;;;;;;;3.42;1.00;;;19.80;82.00;;;;;;5035685;28;20034;-79
2022/06/27 03:26:52;;;;;;;1.17;0.73;;;19.80;82.20;;;;;;5035631;28;20017;-78
2022/06/27 03:29:18;;;;;;;0.70;0.70;;;19.70;82.30;;;;;;5035744;28;20474;-79
2022/06/27 03:31:44;;;;;;;1.77;0.70;;;19.70;82.40;;;;;;5035728;28;20046;-79
2022/06/27 03:34:10;;;;;;;1.70;1.10;;;19.70;82.30;;;;;;5035724;28;20100;-79
2022/06/27 03:36:38;;;;;;;1.83;1.10;;;19.70;83.10;;;;;;5035614;28;20021;-79
2022/06/27 03:39:03;;;;;;;1.25;1.02;;;19.50;83.50;;;;;;5035525;28;20442;-79
2022/06/27 03:41:29;;;;;;;1.20;0.90;;;19.40;84.10;;;;;;5035341;28;20053;-79
2022/06/27 03:43:54;;;;;;;1.55;1.10;;;19.40;83.90;;;;;;5035282;28;20120;-79
2022/06/27 03:46:20;;;;;;;2.35;1.00;;;19.40;83.80;;;;;;5033903;28;20029;-79
2022/06/27 03:51:29;;;;;;;2.03;1.10;;;19.30;84.30;;;;;;5035255;28;20052;-80
2022/06/27 03:53:55;;;;;;;2.80;0.95;;;19.30;84.20;;;;;;5035169;28;20029;-79
2022/06/27 03:56:21;;;;;;;2.85;0.93;;;19.30;83.80;;;;;;5035069;28;20125;-79
2022/06/27 03:58:46;;;;;;;1.48;0.90;;;19.20;83.80;;;;;;5035076;28;20106;-80
2022/06/27 04:01:12;;;;;;;3.15;0.90;;;19.10;84.20;;;;;;5035064;28;20022;-80
2022/06/27 04:03:37;;;;;;;2.95;0.70;;;19.20;84.20;;;;;;5034929;28;20030;-80
2022/06/27 04:06:03;;;;;;;0.95;0.75;;;19.20;84.00;;;;;;5035057;28;20033;-80
2022/06/27 04:08:28;;;;;;;1.05;0.68;;;19.40;83.80;;;;;;5034904;28;20071;-79
2022/06/27 04:10:57;;;;;;;1.02;0.63;;;19.50;83.50;;;;;;5034965;28;20036;-80
2022/06/27 04:13:23;;;;;;;7.68;1.00;;;19.50;83.00;;;;;;5034900;28;20026;-79
2022/06/27 04:15:48;;;;;;;1.67;1.20;;;19.60;82.60;;;;;;5034763;28;20470;-79
2022/06/27 04:18:14;;;;;;;1.15;1.05;;;19.60;82.90;;;;;;5034744;28;20052;-79
2022/06/27 04:20:42;;;;;;;1.73;1.05;;;19.70;83.20;;;;;;5034643;28;20025;-80
2022/06/27 04:23:07;;;;;;;0.93;0.88;;;19.60;82.40;;;;;;5034503;28;20021;-80
2022/06/27 04:25:33;;;;;;;1.45;0.85;;;19.50;83.50;;;;;;5034596;28;20390;-79
2022/06/27 04:27:58;;;;;;;0.95;0.80;;;19.40;82.60;;;;;;5034564;28;20068;-80
2022/06/27 04:30:25;;;;;;;1.45;1.00;;;19.40;82.60;;;;;;5034513;28;20029;-79
2022/06/27 04:32:51;;;;;;;2.03;1.20;;;19.20;83.20;;;;;;5034543;28;20471;-80
2022/06/27 04:35:17;;;;;;;5.95;1.38;;;19.10;83.50;;;;;;5034419;28;20178;-80
2022/06/27 04:37:43;;;;;;;5.35;1.40;;;19.10;83.60;;;;;;5034320;28;20025;-80
2022/06/27 04:40:13;;;;;;;2.30;1.30;;;19.10;83.80;;;;;;5034276;28;20414;-79
2022/06/27 04:42:41;;;;;;;2.42;1.23;;;19.10;84.20;;;;;;5034211;28;20030;-79
2022/06/27 04:45:12;;;;;;;1.50;1.35;;;19.10;84.10;;;;;;5034145;28;20394;-80
2022/06/27 04:47:39;;;;;;;1.40;1.30;;;19.20;83.60;;;;;;5034107;28;20021;-79
2022/06/27 04:50:07;;;;;;;4.05;1.55;;;19.20;83.00;;;;;;5033833;28;20057;-80
2022/06/27 04:52:32;;;;;;;2.47;1.23;;;19.30;82.70;;;;;;5034074;28;20028;-79
2022/06/27 04:54:59;;;;;;;2.22;1.17;;;19.40;82.00;;;;;;5034005;28;20021;-79
2022/06/27 04:57:25;;;;;;;2.00;1.00;;;19.30;82.20;;;;;;5033344;28;20021;-80
2022/06/27 04:59:51;;;;;;;2.55;0.80;;;19.10;81.70;;;;;;5033710;28;20026;-80
2022/06/27 05:02:16;;;;;;;1.23;0.70;;;19.10;82.30;;;;;;5033783;28;20032;-79
2022/06/27 05:04:42;;;;;;;1.80;0.85;;;19.10;82.20;;;;;;5033571;28;20030;-80
2022/06/27 05:07:07;;;;;;;3.80;0.90;;;19.00;82.10;;;;;;5033723;28;20478;-79
2022/06/27 05:09:33;;;;;;;1.27;0.88;;;19.10;82.30;;;;;;5033516;28;20386;-80
2022/06/27 05:11:58;;;;;;;1.35;1.00;;;19.10;82.00;;;;;;5033655;28;20470;-78
2022/06/27 05:14:24;;;;;;;1.15;0.80;;;19.10;81.60;;;;;;5033524;28;20033;-78
2022/06/27 05:16:50;;;;;;;2.30;0.70;;;19.20;81.30;;;;;;5033452;28;20021;-80
2022/06/27 05:19:15;;;;;;;1.88;0.90;;;19.40;81.20;;;;;;5015494;28;20030;-80
2022/06/27 05:21:41;;;;;;;2.45;0.85;;;19.50;81.00;;;;;;5033381;28;20025;-81
2022/06/27 05:24:07;;;;;;;1.30;0.73;;;19.60;80.90;;;;;;5033098;28;20109;-80
2022/06/27 05:26:33;;;;;;;0.70;0.70;;;19.60;80.30;;;;;;5033197;28;20029;-81
2022/06/27 05:29:01;;;;;;;2.33;0.70;;;19.70;80.30;;;;;;5032984;28;20064;-81
2022/06/27 05:31:27;;;;;;;1.85;0.73;;;19.80;80.10;;;;;;5032821;28;20017;-78
2022/06/27 05:33:54;;;;;;;2.22;0.70;;;19.90;80.00;;;;;;5032616;28;20077;-81
2022/06/27 05:36:20;;;;;;;0.85;0.80;;;19.90;79.10;;;;;;5032971;28;20045;-81
2022/06/27 05:38:46;;;;;;;0.93;0.82;;;20.00;79.00;;;;;;5016779;28;20030;-81
2022/06/27 05:41:12;;;;;;;1.80;0.70;;;20.10;78.90;;;;;;5033541;28;20030;-78
2022/06/27 05:43:39;;;;;;;5.15;3.63;;;20.10;78.30;;;;;;5032663;28;20037;-78
2022/06/27 05:46:04;;;;;;;2.17;1.40;;;20.20;78.90;;;;;;5032633;28;20022;-78
2022/06/27 05:48:31;;;;;;;1.27;1.10;;;20.20;77.80;;;;;;5032337;28;20029;-80
2022/06/27 05:50:59;;;;;;;3.33;1.08;;;20.20;77.90;;;;;;5032081;28;20107;-80
2022/06/27 05:53:25;;;;;;;2.45;0.68;;;20.20;77.80;;;;;;5032330;28;20029;-76
2022/06/27 05:55:51;;;;;;;1.27;0.60;;;20.20;77.90;;;;;;5032797;28;20025;-80
2022/06/27 05:58:18;;;;;;;1.85;0.82;;;20.20;78.10;;;;;;5032140;28;20027;-76
2022/06/27 06:00:44;;;;;;;2.08;0.50;;;20.30;78.50;;;;;;5032281;28;20439;-80
2022/06/27 06:03:09;;;;;;;1.90;0.50;;;20.30;78.10;;;;;;5031814;28;20061;-80
2022/06/27 06:05:35;;;;;;;0.60;0.60;;;20.40;78.30;;;;;;5032858;28;20108;-80
2022/06/27 06:08:06;;;;;;;2.45;0.70;;;20.50;77.70;;;;;;5031924;28;20093;-80
2022/06/27 06:10:35;;;;;;;0.93;0.80;;;20.50;77.80;;;;;;5014409;28;20029;-80
2022/06/27 06:13:01;;;;;;;0.55;0.50;;;20.40;77.70;;;;;;5032027;28;20024;-82
2022/06/27 06:15:29;;;;;;;1.13;0.60;;;20.50;77.80;;;;;;5031936;28;20094;-82
2022/06/27 06:17:56;;;;;;;0.90;0.57;;;20.60;77.70;;;;;;5031820;28;20022;-82
2022/06/27 06:20:22;;;;;;;2.92;0.50;;;20.70;77.50;;;;;;5031667;28;20455;-81
2022/06/27 06:22:47;;;;;;;0.80;0.80;;;20.90;77.20;;;;;;5032402;28;20032;-79
2022/06/27 06:25:13;;;;;;;7.07;2.47;;;21.00;76.90;;;;;;5032306;28;20030;-81
2022/06/27 06:27:40;;;;;;;8.82;4.20;;;21.00;77.90;;;;;;5032162;28;20140;-80
2022/06/27 06:30:07;;;;;;;5.38;3.45;;;20.90;77.90;;;;;;5032237;28;20120;-80
2022/06/27 06:32:34;;;;;;;4.93;2.65;;;20.60;78.00;;;;;;5032156;28;20025;-80
2022/06/27 06:35:00;;;;;;;5.45;3.10;;;20.50;78.30;;;;;;5032184;28;20053;-80
2022/06/27 06:37:27;;;;;;;8.63;5.97;;;20.20;79.30;;;;;;5032192;28;20060;-80
2022/06/27 06:39:53;;;;;;;5.43;3.03;;;20.00;80.50;;;;;;5031969;28;20113;-80
2022/06/27 06:42:19;;;;;;;4.40;2.50;;;20.10;79.80;;;;;;5032004;28;20025;-79
2022/06/27 06:44:46;;;;;;;6.28;2.97;;;19.90;80.60;;;;;;5031913;28;20040;-79
2022/06/27 06:47:14;;;;;;;2.40;2.20;;;19.80;80.20;;;;;;5031959;28;20021;-79
2022/06/27 06:49:44;;;;;;;3.03;1.60;;;19.80;81.10;;;;;;5031751;28;20068;-77
2022/06/27 06:52:10;;;;;;;4.20;2.60;;;19.60;81.50;;;;;;5031757;28;20079;-76
2022/06/27 06:54:36;;;;;;;4.75;1.60;;;19.70;80.80;;;;;;5031955;28;20367;-79
2022/06/27 06:57:02;;;;;;;1.90;1.55;;;20.10;79.50;;;;;;5031954;28;20500;-77
2022/06/27 06:59:28;;;;;;;5.07;1.13;;;20.50;77.70;;;;;;5031793;28;20056;-79
2022/06/27 07:01:53;;;;;;;2.47;1.25;;;20.80;75.40;;;;;;5032017;28;20057;-79
2022/06/27 07:04:19;;;;;;;1.00;0.50;;;20.90;75.40;;;;;;5032219;28;20056;-81
2022/06/27 07:06:45;;;;;;;2.58;1.08;;;21.00;74.20;;;;;;5031764;28;20017;-80
2022/06/27 07:09:11;;;;;;;2.38;0.93;;;21.20;74.10;;;;;;5031801;28;20485;-80
2022/06/27 07:11:37;;;;;;;3.33;1.00;;;21.30;73.20;;;;;;5031875;28;20033;-80
2022/06/27 07:14:04;;;;;;;3.72;0.93;;;21.40;73.20;;;;;;5031661;28;20485;-80
2022/06/27 07:16:31;;;;;;;1.40;0.50;;;21.60;73.50;;;;;;5032064;28;20033;-81
2022/06/27 07:19:00;;;;;;;1.13;0.60;;;21.90;71.70;;;;;;5031944;28;20045;-80
2022/06/27 07:21:28;;;;;;;1.73;0.60;;;21.70;71.10;;;;;;5035169;28;20367;-81
2022/06/27 07:23:55;;;;;;;1.77;0.60;;;21.70;72.50;;;;;;5035145;28;20493;-80
2022/06/27 07:26:21;;;;;;;1.55;1.10;;;21.70;73.30;;;;;;5017519;28;20029;-80
2022/06/27 07:28:48;;;;;;;4.07;0.80;;;21.60;73.30;;;;;;5035532;28;20021;-81
2022/06/27 07:31:14;;;;;;;1.08;0.60;;;21.70;72.70;;;;;;5035516;28;20018;-80
2022/06/27 07:33:45;;;;;;;1.60;0.70;;;22.00;73.20;;;;;;5035313;28;20033;-81
2022/06/27 07:36:14;;;;;;;3.70;0.60;;;21.90;72.70;;;;;;5035207;28;20144;-81
2022/06/27 07:38:41;;;;;;;1.70;0.32;;;21.90;72.20;;;;;;5035090;28;20355;-80
2022/06/27 07:41:09;;;;;;;2.20;0.38;;;21.80;72.00;;;;;;5034997;28;20491;-81
2022/06/27 07:43:35;;;;;;;0.52;0.20;;;21.70;71.70;;;;;;5035094;28;20112;-80
2022/06/27 07:46:01;;;;;;;2.05;0.40;;;21.60;72.20;;;;;;5034771;28;20174;-80
2022/06/27 07:48:28;;;;;;;2.17;0.60;;;21.50;72.70;;;;;;5034626;28;20033;-80
2022/06/27 07:50:55;;;;;;;3.30;2.17;;;21.50;73.40;;;;;;5034306;28;20072;-79
2022/06/27 07:53:21;;;;;;;14.50;11.23;;;21.60;72.10;;;;;;5034890;28;20025;-80
2022/06/27 07:55:52;;;;;;;1.30;0.80;;;21.80;71.60;;;;;;5034634;28;20498;-80
2022/06/27 07:58:19;;;;;;;1.77;0.30;;;22.00;70.50;;;;;;5034641;28;20029;-80
2022/06/27 08:00:48;;;;;;;1.05;0.30;;;21.70;72.30;;;;;;5016883;28;20021;-81
2022/06/27 08:06:00;;;;;;;1.98;0.68;;;21.40;72.30;;;;;;5034696;28;20073;-80
2022/06/27 08:08:26;;;;;;;0.47;0.30;;;21.40;73.10;;;;;;5016550;28;20437;-80
2022/06/27 08:10:53;;;;;;;2.05;0.38;;;21.20;72.60;;;;;;5034645;28;20017;-80
2022/06/27 08:13:19;;;;;;;1.63;0.30;;;21.00;73.30;;;;;;5016909;28;20473;-80
2022/06/27 08:15:47;;;;;;;2.53;1.63;;;21.00;73.30;;;;;;5034493;28;20057;-81
2022/06/27 08:18:16;;;;;;;1.40;0.40;;;21.10;73.50;;;;;;5034357;28;20025;-80
2022/06/27 08:20:42;;;;;;;1.75;0.80;;;21.10;73.70;;;;;;5034355;28;20135;-80
2022/06/27 08:23:09;;;;;;;0.95;0.60;;;21.20;73.50;;;;;;5034487;28;20028;-80
2022/06/27 08:25:35;;;;;;;0.80;0.47;;;21.20;73.60;;;;;;5034540;28;20029;-81
2022/06/27 08:28:01;;;;;;;0.73;0.65;;;21.20;73.70;;;;;;5034383;28;20025;-80
2022/06/27 08:30:27;;;;;;;2.72;0.70;;;21.40;72.70;;;;;;5035031;28;20394;-80
2022/06/27 08:32:55;;;;;;;3.38;0.73;;;21.50;71.70;;;;;;5015836;28;20028;-78
2022/06/27 08:35:22;;;;;;;1.23;0.52;;;21.50;71.20;;;;;;5034432;28;20026;-80
2022/06/27 08:37:50;;;;;;;0.47;0.43;;;21.40;72.10;;;;;;5034848;28;20033;-79
2022/06/27 08:40:17;;;;;;;1.77;0.57;;;21.50;71.40;;;;;;5034445;28;20056;-80
2022/06/27 08:42:46;;;;;;;2.35;0.60;;;21.00;73.60;;;;;;5035550;28;20029;-80
2022/06/27 08:45:15;;;;;;;1.88;0.60;;;20.70;74.30;;;;;;5042108;28;20089;-80
2022/06/27 08:47:41;;;;;;;3.10;0.85;;;20.90;73.60;;;;;;5040904;28;20014;-76
2022/06/27 08:50:14;;;;;;;1.23;0.63;;;20.40;73.30;;;;;;5016723;28;20453;-80
2022/06/27 08:52:40;;;;;;;3.10;0.63;;;20.40;74.80;;;;;;5034139;28;20017;-80
2022/06/27 08:55:08;;;;;;;15.07;11.45;;;20.50;74.10;;;;;;5034051;28;20112;-79
2022/06/27 08:57:36;;;;;;;1.35;0.82;;;20.50;74.80;;;;;;5033930;28;20018;-81
2022/06/27 09:00:06;;;;;;;1.52;0.70;;;20.60;74.20;;;;;;5033745;28;20029;-80
2022/06/27 09:02:44;;;;;;;0.95;0.80;;;20.80;73.20;;;;;;5033638;28;20031;-80
2022/06/27 09:05:16;;;;;;;1.15;0.60;;;20.70;74.30;;;;;;5033568;28;20079;-80
2022/06/27 09:07:56;;;;;;;0.43;0.43;;;20.90;73.10;;;;;;5033721;28;20021;-80
2022/06/27 09:10:23;;;;;;;1.65;0.73;;;21.20;71.40;;;;;;5033561;28;20032;-80
2022/06/27 09:13:05;;;;;;;2.70;0.60;;;20.80;73.00;;;;;;5033534;28;20470;-81
2022/06/27 09:15:46;;;;;;;2.65;0.70;;;21.20;71.20;;;;;;5033315;28;20021;-79
2022/06/27 09:18:14;;;;;;;1.65;0.57;;;21.50;70.30;;;;;;5033394;28;20021;-81
2022/06/27 09:20:57;;;;;;;1.02;0.40;;;22.00;68.90;;;;;;5033301;28;20025;-80
2022/06/27 09:23:43;;;;;;;3.90;2.95;;;22.40;66.30;;;;;;5033244;28;20021;-80
2022/06/27 09:26:14;;;;;;;1.35;0.90;;;22.70;65.00;;;;;;5033446;28;20044;-80
2022/06/27 09:28:51;;;;;;;1.33;0.77;;;22.70;65.30;;;;;;5033017;28;20028;-80
2022/06/27 09:31:26;;;;;;;1.35;0.65;;;22.60;64.10;;;;;;5033306;28;20025;-80
2022/06/27 09:34:14;;;;;;;0.60;0.60;;;22.40;64.20;;;;;;5032996;28;20467;-79
2022/06/27 09:36:51;;;;;;;2.25;0.60;;;22.20;65.20;;;;;;5033049;28;20115;-79
2022/06/27 09:39:28;;;;;;;0.70;0.43;;;22.10;64.90;;;;;;5015274;28;20118;-80
2022/06/27 09:41:59;;;;;;;1.40;0.63;;;22.30;64.90;;;;;;5032601;28;20134;-79
2022/06/27 09:44:35;;;;;;;9.20;6.95;;;22.40;64.00;;;;;;5032469;28;20037;-80
2022/06/27 09:47:23;;;;;;;1.95;0.55;;;22.50;64.80;;;;;;5032670;28;20021;-79
2022/06/27 09:49:52;;;;;;;1.30;0.52;;;22.50;66.10;;;;;;5032559;28;20214;-80
2022/06/27 09:52:23;;;;;;;1.60;0.50;;;22.60;64.90;;;;;;5032471;28;20064;-79
2022/06/27 09:54:51;;;;;;;2.03;0.60;;;22.60;64.50;;;;;;5032517;28;20025;-80
2022/06/27 09:57:18;;;;;;;0.30;0.30;;;22.50;64.50;;;;;;5033003;28;20499;-80
2022/06/27 09:59:45;;;;;;;2.17;0.60;;;22.50;64.70;;;;;;5032734;28;20107;-80
2022/06/27 10:02:16;;;;;;;2.83;0.80;;;22.60;65.90;;;;;;5032636;28;20100;-80
2022/06/27 10:04:43;;;;;;;2.15;0.40;;;22.60;64.20;;;;;;5032129;28;20218;-79
2022/06/27 10:07:11;;;;;;;1.00;0.70;;;22.60;65.80;;;;;;5032198;28;20378;-79
2022/06/27 10:09:38;;;;;;;1.08;0.77;;;22.70;67.20;;;;;;5014475;28;20032;-78
2022/06/27 10:12:22;;;;;;;1.60;0.60;;;22.70;66.20;;;;;;5032299;28;20024;-79
2022/06/27 10:15:13;;;;;;;1.08;0.60;;;22.70;66.00;;;;;;5031927;28;20056;-82
2022/06/27 10:17:44;;;;;;;0.90;0.55;;;22.40;67.20;;;;;;5031951;28;20036;-81
2022/06/27 10:20:21;;;;;;;1.73;0.60;;;22.20;68.20;;;;;;5031949;28;20034;-78
2022/06/27 10:23:23;;;;;;;0.98;0.50;;;22.20;69.00;;;;;;5032006;28;20044;-81
2022/06/27 10:25:49;;;;;;;3.65;0.57;;;22.20;67.80;;;;;;5029445;28;20069;-80
2022/06/27 10:28:16;;;;;;;0.95;0.50;;;21.90;67.50;;;;;;5032083;28;20092;-81
2022/06/27 10:30:56;;;;;;;0.60;0.50;;;21.80;68.80;;;;;;5032314;28;20018;-80
2022/06/27 10:33:21;;;;;;;1.50;0.60;;;21.70;69.70;;;;;;5032066;28;20017;-81
2022/06/27 10:38:31;;;;;;;2.45;1.00;;;21.80;69.90;;;;;;5032389;28;20439;-81
2022/06/27 10:41:02;;;;;;;2.88;0.85;;;21.80;67.80;;;;;;5032312;28;20022;-81
2022/06/27 10:43:40;;;;;;;1.23;0.60;;;21.70;67.60;;;;;;5032427;28;20486;-80
2022/06/27 10:46:11;;;;;;;1.67;0.60;;;21.50;69.00;;;;;;5014574;28;20124;-79
2022/06/27 10:48:40;;;;;;;1.33;0.70;;;21.50;68.60;;;;;;5036872;28;20082;-81
2022/06/27 10:51:18;;;;;;;3.22;1.00;;;21.40;69.70;;;;;;5036092;28;20049;-80
2022/06/27 10:53:48;;;;;;;1.90;0.82;;;21.20;70.10;;;;;;5033773;28;20339;-80
2022/06/27 10:56:41;;;;;;;1.98;1.13;;;21.30;69.40;;;;;;5035322;28;20036;-80
2022/06/27 10:59:27;;;;;;;0.90;0.80;;;21.30;68.90;;;;;;5036249;28;20025;-79
2022/06/27 11:02:00;;;;;;;1.25;0.70;;;21.40;68.70;;;;;;5039510;28;20033;-79
2022/06/27 11:04:28;;;;;;;2.80;1.02;;;21.60;68.00;;;;;;5018831;28;20226;-79
2022/06/27 11:06:56;;;;;;;0.88;0.70;;;21.70;67.50;;;;;;5036651;28;20037;-79
2022/06/27 11:09:36;;;;;;;1.13;0.90;;;21.80;66.90;;;;;;5036281;28;20018;-81
2022/06/27 11:12:04;;;;;;;1.88;0.80;;;22.00;66.00;;;;;;5018473;28;20474;-80
2022/06/27 11:14:29;;;;;;;1.15;0.80;;;22.00;66.50;;;;;;5036814;28;20068;-79
2022/06/27 11:16:55;;;;;;;1.35;0.80;;;21.70;67.70;;;;;;5037443;28;20018;-80
2022/06/27 11:22:21;;;;;;;1.23;0.80;;;21.80;66.70;;;;;;5035532;28;20095;-80
2022/06/27 11:24:50;;;;;;;1.05;0.80;;;22.00;66.60;;;;;;5035195;28;20069;-79
2022/06/27 11:27:16;;;;;;;2.05;1.00;;;21.90;67.70;;;;;;5017328;28;20498;-80
2022/06/27 11:32:32;;;;;;;0.88;0.80;;;21.90;67.20;;;;;;5035399;28;20496;-80
2022/06/27 11:34:57;;;;;;;3.83;0.90;;;21.90;67.50;;;;;;5034889;28;20096;-80
2022/06/27 11:37:24;;;;;;;3.00;1.00;;;21.70;68.40;;;;;;5035080;28;20091;-80
2022/06/27 11:40:07;;;;;;;1.95;0.90;;;21.60;68.90;;;;;;5035113;28;20061;-79
2022/06/27 11:42:34;;;;;;;1.48;0.88;;;21.60;68.20;;;;;;5034927;28;20021;-80
2022/06/27 11:45:10;;;;;;;1.65;0.85;;;21.70;67.80;;;;;;5034564;28;20037;-80
2022/06/27 11:47:39;;;;;;;2.63;0.93;;;21.70;66.80;;;;;;5034759;28;20292;-79
2022/06/27 11:50:11;;;;;;;1.88;1.50;;;21.80;66.10;;;;;;5016800;28;20518;-79
2022/06/27 11:52:47;;;;;;;1.77;1.05;;;21.60;66.80;;;;;;5034812;28;20053;-80
2022/06/27 11:55:24;;;;;;;3.58;1.63;;;21.30;67.70;;;;;;5034722;28;20112;-81
2022/06/27 11:57:54;;;;;;;1.83;0.90;;;21.20;67.60;;;;;;5034918;28;20032;-80
2022/06/27 12:00:32;;;;;;;1.30;1.08;;;20.90;69.20;;;;;;5034960;28;20025;-80
2022/06/27 12:03:02;;;;;;;2.17;0.85;;;20.90;70.30;;;;;;5034885;28;20088;-79
2022/06/27 12:05:28;;;;;;;3.17;0.80;;;20.80;70.30;;;;;;5034242;28;20434;-80
2022/06/27 12:08:11;;;;;;;1.73;1.10;;;20.80;70.30;;;;;;5033848;28;20021;-81
2022/06/27 12:13:33;;;;;;;3.58;1.95;;;20.90;69.40;;;;;;5034931;28;20057;-81
2022/06/27 12:16:03;;;;;;;2.42;1.10;;;21.00;68.80;;;;;;5034250;28;20021;-79
2022/06/27 12:18:41;;;;;;;1.33;1.20;;;20.90;68.70;;;;;;5034542;28;20065;-78
2022/06/27 12:21:07;;;;;;;1.80;0.90;;;20.90;70.20;;;;;;5034622;28;20026;-80
2022/06/27 12:23:33;;;;;;;0.80;0.57;;;21.00;69.30;;;;;;5034441;28;20032;-79
2022/06/27 12:25:59;;;;;;;1.73;1.02;;;20.90;68.70;;;;;;5034603;28;20081;-79
2022/06/27 12:28:24;;;;;;;0.73;0.55;;;20.70;70.10;;;;;;5034415;28;20021;-79
2022/06/27 12:30:51;;;;;;;0.70;0.70;;;20.60;68.20;;;;;;5016508;28;20033;-80
2022/06/27 12:33:16;;;;;;;1.50;0.80;;;20.70;68.50;;;;;;5035363;28;20105;-80
2022/06/27 12:35:42;;;;;;;2.38;0.98;;;20.60;68.40;;;;;;5037270;28;20084;-80
2022/06/27 12:38:08;;;;;;;2.30;0.82;;;20.90;67.80;;;;;;5034545;28;20021;-81
2022/06/27 12:40:35;;;;;;;3.15;1.25;;;20.90;68.00;;;;;;5035337;28;20018;-80
2022/06/27 12:43:01;;;;;;;1.00;0.63;;;20.90;68.20;;;;;;5034184;28;20022;-78
2022/06/27 12:45:27;;;;;;;0.90;0.50;;;20.90;68.20;;;;;;5033902;28;20033;-78
2022/06/27 12:47:52;;;;;;;3.17;0.70;;;21.20;66.70;;;;;;5016244;28;20024;-80
2022/06/27 12:50:18;;;;;;;2.03;0.70;;;21.60;66.30;;;;;;5033845;28;20049;-81
2022/06/27 12:52:44;;;;;;;3.55;0.60;;;22.00;63.60;;;;;;5034031;28;20029;-80
2022/06/27 12:55:10;;;;;;;1.52;0.60;;;22.60;61.30;;;;;;5033788;28;20100;-80
2022/06/27 12:57:36;;;;;;;3.30;0.65;;;23.20;59.60;;;;;;5033809;28;20053;-80
2022/06/27 13:00:04;;;;;;;2.60;0.80;;;23.80;56.20;;;;;;5034028;28;20122;-82
2022/06/27 13:02:29;;;;;;;0.93;0.80;;;24.30;54.20;;;;;;5033869;28;20025;-82
2022/06/27 13:04:55;;;;;;;1.48;0.68;;;24.10;55.20;;;;;;5034300;28;20117;-83
2022/06/27 13:07:21;;;;;;;1.67;0.55;;;24.00;55.40;;;;;;5033974;28;20026;-83